CCA8573 ZSPD-ZJHK
Flight info
| Callsign | CCA8573 |
|---|---|
| Flight time | N/A |
| Altitude | 38100 |
| Route | NXD91D NXD W131 AKDIM A470 DUBGO W134 ELNEX A599 PLT W19 NOMAR W18 NLG W23 ZUH R200 BIGRO G221 GIVIV W605 DOMGO DOMGO9XA |
| Aircraft | B77W/H-SDE1E2E3FGHIJ2J3J4J5M1RWXY/LB1D1 |
Departure
| Time | N/A |
|---|---|
| Airport | Shanghai Pudong International Airport (ZSPD) |
Arrival
| Time | 2026-04-29 10:46 |
|---|---|
| Airport | Haikou Meilan International Airport (ZJHK) |
| Time | Latitude | Longitude | Altitude | Speed | Heading |
|---|---|---|---|---|---|
| 2026-04-29 09:39 | 24.13054 | 114.24360 | 38119 ft | 440 kts | 213° |
| 2026-04-29 09:40 | 24.07729 | 114.21046 | 38112 ft | 440 kts | 213° |
| 2026-04-29 09:40 | 24.02410 | 114.17734 | 38087 ft | 440 kts | 213° |
| 2026-04-29 09:41 | 23.97091 | 114.14419 | 38110 ft | 441 kts | 213° |
| 2026-04-29 09:41 | 23.91759 | 114.11097 | 38096 ft | 441 kts | 213° |
| 2026-04-29 09:42 | 23.86409 | 114.07768 | 38090 ft | 443 kts | 213° |
| 2026-04-29 09:42 | 23.81045 | 114.04436 | 38087 ft | 444 kts | 213° |
| 2026-04-29 09:43 | 23.75670 | 114.01100 | 38078 ft | 445 kts | 213° |
| 2026-04-29 09:43 | 23.70278 | 113.97757 | 38069 ft | 446 kts | 213° |
| 2026-04-29 09:44 | 23.64884 | 113.94414 | 38052 ft | 446 kts | 213° |
| 2026-04-29 09:44 | 23.59486 | 113.91071 | 38063 ft | 446 kts | 213° |
| 2026-04-29 09:45 | 23.54078 | 113.87728 | 38053 ft | 447 kts | 212° |
| 2026-04-29 09:45 | 23.48522 | 113.84749 | 38043 ft | 441 kts | 205° |
| 2026-04-29 09:46 | 23.42564 | 113.82839 | 38047 ft | 455 kts | 198° |
| 2026-04-29 09:46 | 23.36350 | 113.81251 | 38044 ft | 460 kts | 198° |
| 2026-04-29 09:47 | 23.30147 | 113.79508 | 38041 ft | 460 kts | 200° |
| 2026-04-29 09:47 | 23.23979 | 113.77634 | 38038 ft | 459 kts | 200° |
| 2026-04-29 09:48 | 23.17838 | 113.75746 | 38036 ft | 458 kts | 200° |
| 2026-04-29 09:48 | 23.11760 | 113.73903 | 38022 ft | 456 kts | 200° |
| 2026-04-29 09:49 | 23.05660 | 113.72068 | 38032 ft | 454 kts | 200° |
| 2026-04-29 09:49 | 22.99573 | 113.70239 | 38034 ft | 454 kts | 200° |
| 2026-04-29 09:50 | 22.94473 | 113.68705 | 38029 ft | 454 kts | 200° |
| 2026-04-29 09:50 | 22.87392 | 113.66577 | 38033 ft | 455 kts | 200° |
| 2026-04-29 09:51 | 22.82275 | 113.65025 | 38007 ft | 456 kts | 200° |
| 2026-04-29 09:51 | 22.76202 | 113.63174 | 38016 ft | 457 kts | 200° |
| 2026-04-29 09:52 | 22.70074 | 113.61312 | 38019 ft | 458 kts | 200° |
| 2026-04-29 09:52 | 22.63932 | 113.59451 | 38013 ft | 459 kts | 200° |
| 2026-04-29 09:53 | 22.57782 | 113.57588 | 38023 ft | 459 kts | 200° |
| 2026-04-29 09:53 | 22.51626 | 113.55721 | 38008 ft | 459 kts | 199° |
| 2026-04-29 09:54 | 22.45486 | 113.53838 | 38007 ft | 458 kts | 199° |
| 2026-04-29 09:54 | 22.39360 | 113.51955 | 37996 ft | 457 kts | 199° |
| 2026-04-29 09:55 | 22.33237 | 113.50078 | 37994 ft | 457 kts | 199° |
| 2026-04-29 09:55 | 22.27131 | 113.48198 | 37959 ft | 453 kts | 201° |
| 2026-04-29 09:56 | 22.24234 | 113.46986 | 37961 ft | 442 kts | 212° |
| 2026-04-29 09:56 | 22.21864 | 113.44903 | 37993 ft | 441 kts | 233° |
| 2026-04-29 09:56 | 22.20324 | 113.42041 | 38035 ft | 445 kts | 248° |
| 2026-04-29 09:56 | 22.19312 | 113.38881 | 37993 ft | 444 kts | 252° |
| 2026-04-29 09:57 | 22.17223 | 113.32682 | 38009 ft | 438 kts | 245° |
| 2026-04-29 09:57 | 22.14664 | 113.26619 | 38023 ft | 449 kts | 246° |
| 2026-04-29 09:58 | 22.12249 | 113.20389 | 38014 ft | 451 kts | 246° |
| 2026-04-29 09:58 | 22.09704 | 113.14199 | 38020 ft | 451 kts | 245° |
| 2026-04-29 09:59 | 22.07124 | 113.08034 | 38017 ft | 450 kts | 246° |
| 2026-04-29 09:59 | 22.04582 | 113.01900 | 37999 ft | 447 kts | 246° |
| 2026-04-29 10:00 | 22.02106 | 112.95778 | 38013 ft | 445 kts | 247° |
| 2026-04-29 10:00 | 21.99754 | 112.89676 | 38022 ft | 444 kts | 247° |
| 2026-04-29 10:01 | 21.97370 | 112.83542 | 38013 ft | 444 kts | 246° |
| 2026-04-29 10:01 | 21.94948 | 112.77435 | 38025 ft | 443 kts | 246° |
| 2026-04-29 10:02 | 21.92490 | 112.71337 | 38023 ft | 444 kts | 246° |
| 2026-04-29 10:02 | 21.90030 | 112.65229 | 38028 ft | 445 kts | 246° |
| 2026-04-29 10:03 | 21.87571 | 112.59106 | 38015 ft | 446 kts | 246° |
| 2026-04-29 10:03 | 21.85109 | 112.52981 | 38017 ft | 446 kts | 246° |
| 2026-04-29 10:04 | 21.82661 | 112.46837 | 38017 ft | 447 kts | 246° |
| 2026-04-29 10:04 | 21.80214 | 112.40673 | 38026 ft | 449 kts | 246° |
| 2026-04-29 10:05 | 21.77745 | 112.34465 | 38026 ft | 453 kts | 246° |
| 2026-04-29 10:05 | 21.75254 | 112.28218 | 38031 ft | 456 kts | 246° |
| 2026-04-29 10:06 | 21.72747 | 112.21943 | 38028 ft | 458 kts | 246° |
| 2026-04-29 10:06 | 21.70228 | 112.15648 | 38032 ft | 458 kts | 246° |
| 2026-04-29 10:07 | 21.67713 | 112.09367 | 38031 ft | 456 kts | 246° |
| 2026-04-29 10:07 | 21.65207 | 112.03116 | 38020 ft | 454 kts | 246° |
| 2026-04-29 10:08 | 21.62714 | 111.96905 | 38025 ft | 451 kts | 246° |
| 2026-04-29 10:08 | 21.60234 | 111.90735 | 38033 ft | 449 kts | 246° |
| 2026-04-29 10:09 | 21.57703 | 111.84621 | 38011 ft | 443 kts | 243° |
| 2026-04-29 10:09 | 21.54511 | 111.79045 | 38025 ft | 439 kts | 229° |
| 2026-04-29 10:10 | 21.50113 | 111.74483 | 38030 ft | 442 kts | 224° |
| 2026-04-29 10:10 | 21.47906 | 111.72197 | 37726 ft | 441 kts | 227° |
| 2026-04-29 10:10 | 21.45883 | 111.69727 | 37021 ft | 441 kts | 232° |
| 2026-04-29 10:11 | 21.43981 | 111.67080 | 36111 ft | 456 kts | 234° |
| 2026-04-29 10:11 | 21.42111 | 111.64392 | 35815 ft | 438 kts | 234° |
| 2026-04-29 10:11 | 21.40274 | 111.61815 | 35644 ft | 439 kts | 233° |
| 2026-04-29 10:11 | 21.38360 | 111.59237 | 35549 ft | 442 kts | 232° |
| 2026-04-29 10:12 | 21.34437 | 111.54219 | 35488 ft | 435 kts | 230° |
| 2026-04-29 10:12 | 21.32480 | 111.51780 | 35372 ft | 426 kts | 230° |
| 2026-04-29 10:12 | 21.30557 | 111.49395 | 34963 ft | 421 kts | 230° |
| 2026-04-29 10:13 | 21.26736 | 111.44642 | 34866 ft | 428 kts | 230° |
| 2026-04-29 10:13 | 21.24770 | 111.42185 | 34870 ft | 440 kts | 230° |
| 2026-04-29 10:13 | 21.22774 | 111.39686 | 34873 ft | 441 kts | 230° |
| 2026-04-29 10:14 | 21.18818 | 111.34733 | 34822 ft | 433 kts | 230° |
| 2026-04-29 10:14 | 21.14937 | 111.29879 | 34369 ft | 424 kts | 231° |
| 2026-04-29 10:15 | 21.13061 | 111.27536 | 34052 ft | 405 kts | 231° |
| 2026-04-29 10:15 | 21.11260 | 111.25287 | 33566 ft | 391 kts | 231° |
| 2026-04-29 10:15 | 21.09510 | 111.23103 | 32901 ft | 382 kts | 231° |
| 2026-04-29 10:15 | 21.07792 | 111.20958 | 32104 ft | 378 kts | 231° |
| 2026-04-29 10:16 | 21.06081 | 111.18822 | 31256 ft | 377 kts | 231° |
| 2026-04-29 10:16 | 21.04950 | 111.17410 | 30701 ft | 376 kts | 231° |
| 2026-04-29 10:16 | 21.02689 | 111.14587 | 29693 ft | 371 kts | 232° |
| 2026-04-29 10:17 | 20.99454 | 111.10556 | 28294 ft | 357 kts | 232° |
| 2026-04-29 10:17 | 20.97851 | 111.08560 | 27565 ft | 352 kts | 232° |
| 2026-04-29 10:17 | 20.96204 | 111.06643 | 26838 ft | 348 kts | 227° |
| 2026-04-29 10:17 | 20.94404 | 111.04921 | 26115 ft | 346 kts | 220° |
| 2026-04-29 10:18 | 20.92347 | 111.03592 | 25390 ft | 348 kts | 206° |
| 2026-04-29 10:18 | 20.90060 | 111.02762 | 24773 ft | 344 kts | 201° |
| 2026-04-29 10:18 | 20.87794 | 111.02019 | 24165 ft | 338 kts | 203° |
| 2026-04-29 10:18 | 20.85643 | 111.01130 | 23968 ft | 327 kts | 208° |
| 2026-04-29 10:19 | 20.83582 | 111.00107 | 23633 ft | 328 kts | 210° |
| 2026-04-29 10:19 | 20.81520 | 110.99041 | 23123 ft | 331 kts | 210° |
| 2026-04-29 10:19 | 20.79435 | 110.97982 | 22662 ft | 331 kts | 209° |
| 2026-04-29 10:19 | 20.77347 | 110.96952 | 22320 ft | 329 kts | 208° |
| 2026-04-29 10:20 | 20.75272 | 110.95952 | 21965 ft | 326 kts | 208° |
| 2026-04-29 10:20 | 20.73203 | 110.94968 | 21590 ft | 324 kts | 208° |
| 2026-04-29 10:20 | 20.71144 | 110.93993 | 21218 ft | 323 kts | 208° |
| 2026-04-29 10:20 | 20.69093 | 110.93023 | 20844 ft | 322 kts | 208° |
| 2026-04-29 10:21 | 20.67050 | 110.92057 | 20486 ft | 320 kts | 208° |
| 2026-04-29 10:21 | 20.65018 | 110.91096 | 20136 ft | 319 kts | 208° |
| 2026-04-29 10:21 | 20.62998 | 110.90141 | 19930 ft | 317 kts | 208° |
| 2026-04-29 10:21 | 20.60970 | 110.89181 | 19947 ft | 321 kts | 208° |
| 2026-04-29 10:22 | 20.58926 | 110.88215 | 19935 ft | 320 kts | 208° |
| 2026-04-29 10:22 | 20.56893 | 110.87255 | 19928 ft | 319 kts | 208° |
| 2026-04-29 10:22 | 20.54869 | 110.86300 | 19916 ft | 317 kts | 208° |
| 2026-04-29 10:22 | 20.52856 | 110.85350 | 19917 ft | 316 kts | 208° |
| 2026-04-29 10:23 | 20.50848 | 110.84405 | 19918 ft | 315 kts | 207° |
| 2026-04-29 10:23 | 20.48786 | 110.83654 | 19889 ft | 315 kts | 195° |
| 2026-04-29 10:23 | 20.46604 | 110.83387 | 19935 ft | 326 kts | 188° |
| 2026-04-29 10:23 | 20.44317 | 110.83300 | 19923 ft | 330 kts | 186° |
| 2026-04-29 10:24 | 20.42038 | 110.83239 | 19910 ft | 324 kts | 186° |
| 2026-04-29 10:24 | 20.39778 | 110.83147 | 19912 ft | 320 kts | 187° |
| 2026-04-29 10:24 | 20.37569 | 110.83018 | 19926 ft | 324 kts | 188° |
| 2026-04-29 10:24 | 20.35313 | 110.82861 | 19917 ft | 324 kts | 188° |
| 2026-04-29 10:25 | 20.33090 | 110.82696 | 19631 ft | 316 kts | 189° |
| 2026-04-29 10:25 | 20.30920 | 110.82527 | 19152 ft | 310 kts | 189° |
| 2026-04-29 10:25 | 20.28794 | 110.82360 | 18709 ft | 302 kts | 189° |
| 2026-04-29 10:25 | 20.26734 | 110.82197 | 18307 ft | 293 kts | 189° |
| 2026-04-29 10:26 | 20.24736 | 110.82040 | 17879 ft | 284 kts | 189° |
| 2026-04-29 10:26 | 20.22780 | 110.81887 | 17344 ft | 279 kts | 189° |
| 2026-04-29 10:26 | 20.20848 | 110.81736 | 16780 ft | 278 kts | 189° |
| 2026-04-29 10:26 | 20.18925 | 110.81586 | 16194 ft | 277 kts | 189° |
| 2026-04-29 10:27 | 20.15077 | 110.81285 | 15062 ft | 274 kts | 189° |
| 2026-04-29 10:27 | 20.13181 | 110.81139 | 14540 ft | 272 kts | 189° |
| 2026-04-29 10:27 | 20.11320 | 110.80995 | 14029 ft | 271 kts | 189° |
| 2026-04-29 10:28 | 20.09447 | 110.80850 | 13493 ft | 270 kts | 189° |
| 2026-04-29 10:28 | 20.07586 | 110.80706 | 12948 ft | 267 kts | 189° |
| 2026-04-29 10:28 | 20.05744 | 110.80565 | 12452 ft | 263 kts | 189° |
| 2026-04-29 10:28 | 20.03926 | 110.80422 | 11937 ft | 260 kts | 189° |
| 2026-04-29 10:29 | 20.02126 | 110.80271 | 11432 ft | 258 kts | 189° |
| 2026-04-29 10:29 | 20.00343 | 110.80119 | 10924 ft | 256 kts | 189° |
| 2026-04-29 10:29 | 19.98571 | 110.79967 | 10441 ft | 255 kts | 189° |
| 2026-04-29 10:29 | 19.96814 | 110.79818 | 9974 ft | 252 kts | 188° |
| 2026-04-29 10:30 | 19.95071 | 110.79669 | 9501 ft | 250 kts | 188° |
| 2026-04-29 10:30 | 19.93364 | 110.79526 | 9167 ft | 240 kts | 189° |
| 2026-04-29 10:30 | 19.91740 | 110.79388 | 8918 ft | 228 kts | 189° |
| 2026-04-29 10:30 | 19.90202 | 110.79257 | 8626 ft | 217 kts | 189° |
| 2026-04-29 10:31 | 19.88720 | 110.79132 | 8257 ft | 210 kts | 189° |
| 2026-04-29 10:31 | 19.87276 | 110.79009 | 7821 ft | 207 kts | 190° |
| 2026-04-29 10:31 | 19.85974 | 110.78518 | 7306 ft | 196 kts | 226° |
| 2026-04-29 10:31 | 19.85306 | 110.77313 | 6766 ft | 191 kts | 258° |
| 2026-04-29 10:32 | 19.85172 | 110.75906 | 6262 ft | 193 kts | 267° |
| 2026-04-29 10:32 | 19.85148 | 110.74474 | 5746 ft | 194 kts | 268° |
| 2026-04-29 10:32 | 19.85134 | 110.73038 | 5271 ft | 194 kts | 268° |
| 2026-04-29 10:32 | 19.85120 | 110.71615 | 4850 ft | 192 kts | 269° |
| 2026-04-29 10:33 | 19.85105 | 110.70206 | 4403 ft | 190 kts | 269° |
| 2026-04-29 10:33 | 19.85091 | 110.68806 | 3966 ft | 189 kts | 269° |
| 2026-04-29 10:33 | 19.85077 | 110.67413 | 3504 ft | 191 kts | 270° |
| 2026-04-29 10:33 | 19.85063 | 110.65999 | 3171 ft | 192 kts | 270° |
| 2026-04-29 10:34 | 19.85051 | 110.64585 | 2973 ft | 186 kts | 270° |
| 2026-04-29 10:34 | 19.85040 | 110.63256 | 2895 ft | 176 kts | 270° |
| 2026-04-29 10:34 | 19.85028 | 110.61950 | 2959 ft | 179 kts | 270° |
| 2026-04-29 10:34 | 19.85018 | 110.60635 | 2908 ft | 177 kts | 270° |
| 2026-04-29 10:35 | 19.85006 | 110.59326 | 2885 ft | 177 kts | 270° |
| 2026-04-29 10:35 | 19.84998 | 110.58033 | 2893 ft | 176 kts | 270° |
| 2026-04-29 10:35 | 19.84986 | 110.56746 | 2867 ft | 170 kts | 269° |
| 2026-04-29 10:35 | 19.84978 | 110.55520 | 2897 ft | 164 kts | 271° |
| 2026-04-29 10:36 | 19.84973 | 110.54307 | 2887 ft | 163 kts | 271° |
| 2026-04-29 10:36 | 19.85028 | 110.53095 | 2893 ft | 168 kts | 282° |
| 2026-04-29 10:36 | 19.85322 | 110.51904 | 2918 ft | 170 kts | 287° |
| 2026-04-29 10:36 | 19.85659 | 110.50725 | 2893 ft | 163 kts | 287° |
| 2026-04-29 10:37 | 19.85978 | 110.49593 | 2913 ft | 157 kts | 287° |
| 2026-04-29 10:37 | 19.86287 | 110.48487 | 2897 ft | 154 kts | 287° |
| 2026-04-29 10:37 | 19.86586 | 110.47394 | 2890 ft | 154 kts | 287° |
| 2026-04-29 10:37 | 19.86873 | 110.46320 | 2893 ft | 150 kts | 287° |
| 2026-04-29 10:38 | 19.87163 | 110.45234 | 2895 ft | 153 kts | 287° |
| 2026-04-29 10:38 | 19.87438 | 110.44196 | 2902 ft | 139 kts | 287° |
| 2026-04-29 10:38 | 19.87693 | 110.43223 | 2868 ft | 138 kts | 287° |
| 2026-04-29 10:38 | 19.87950 | 110.42253 | 2923 ft | 134 kts | 287° |
| 2026-04-29 10:39 | 19.88197 | 110.41300 | 2883 ft | 132 kts | 286° |
| 2026-04-29 10:39 | 19.88444 | 110.40354 | 2899 ft | 135 kts | 286° |
| 2026-04-29 10:39 | 19.88696 | 110.39383 | 2912 ft | 137 kts | 286° |
| 2026-04-29 10:39 | 19.88946 | 110.38420 | 2883 ft | 133 kts | 286° |
| 2026-04-29 10:40 | 19.89194 | 110.37473 | 2908 ft | 133 kts | 289° |
| 2026-04-29 10:40 | 19.89677 | 110.36645 | 2886 ft | 133 kts | 326° |
| 2026-04-29 10:40 | 19.90580 | 110.36325 | 2935 ft | 142 kts | 340° |
| 2026-04-29 10:40 | 19.91496 | 110.35912 | 2888 ft | 140 kts | 332° |
| 2026-04-29 10:41 | 19.92342 | 110.35437 | 2907 ft | 137 kts | 331° |
| 2026-04-29 10:41 | 19.93199 | 110.34956 | 2897 ft | 141 kts | 330° |
| 2026-04-29 10:41 | 19.94072 | 110.34486 | 2901 ft | 141 kts | 330° |
| 2026-04-29 10:41 | 19.94648 | 110.34172 | 2887 ft | 140 kts | 331° |
| 2026-04-29 10:42 | 19.95547 | 110.33836 | 2863 ft | 137 kts | 353° |
| 2026-04-29 10:42 | 19.96458 | 110.34174 | 2906 ft | 151 kts | 43° |
| 2026-04-29 10:42 | 19.96707 | 110.35567 | 2901 ft | 151 kts | 115° |
| 2026-04-29 10:42 | 19.96288 | 110.36158 | 2916 ft | 152 kts | 137° |
| 2026-04-29 10:43 | 19.95524 | 110.37382 | 2865 ft | 152 kts | 96° |
| 2026-04-29 10:43 | 19.95564 | 110.38527 | 2631 ft | 157 kts | 87° |
| 2026-04-29 10:43 | 19.95527 | 110.39667 | 2293 ft | 152 kts | 92° |
| 2026-04-29 10:43 | 19.95469 | 110.40421 | 1982 ft | 149 kts | 92° |
| 2026-04-29 10:44 | 19.95369 | 110.41448 | 1795 ft | 144 kts | 90° |
| 2026-04-29 10:44 | 19.95428 | 110.42503 | 1340 ft | 146 kts | 83° |
| 2026-04-29 10:44 | 19.95396 | 110.43585 | 820 ft | 148 kts | 90° |
| 2026-04-29 10:44 | 19.95363 | 110.44670 | 351 ft | 145 kts | 89° |
| 2026-04-29 10:45 | 19.95378 | 110.45695 | 64 ft | 129 kts | 90° |
| 2026-04-29 10:45 | 19.95379 | 110.46483 | 62 ft | 80 kts | 90° |
| 2026-04-29 10:45 | 19.95381 | 110.47009 | 65 ft | 53 kts | 90° |
| 2026-04-29 10:45 | 19.95382 | 110.47408 | 68 ft | 60 kts | 90° |
| 2026-04-29 10:46 | 19.95383 | 110.47741 | 61 ft | 45 kts | 90° |
| 2026-04-29 10:46 | 19.95383 | 110.48016 | 62 ft | 31 kts | 91° |
| 2026-04-29 10:46 | 19.95342 | 110.48129 | 61 ft | 19 kts | 165° |
| 2026-04-29 10:46 | 19.95181 | 110.48116 | 60 ft | 8 kts | 178° |
| 2026-04-29 10:47 | 19.95124 | 110.48069 | 60 ft | 15 kts | 265° |
| 2026-04-29 10:47 | 19.95128 | 110.47930 | 69 ft | 23 kts | 270° |
| 2026-04-29 10:47 | 19.95128 | 110.47771 | 68 ft | 15 kts | 269° |
| 2026-04-29 10:47 | 19.95126 | 110.47647 | 64 ft | 18 kts | 269° |
| 2026-04-29 10:48 | 19.95127 | 110.47562 | 67 ft | 3 kts | 270° |
| 2026-04-29 10:48 | 19.95120 | 110.47510 | 58 ft | 10 kts | 240° |
| 2026-04-29 10:48 | 19.95046 | 110.47495 | 63 ft | 13 kts | 180° |
| 2026-04-29 10:48 | 19.94968 | 110.47480 | 60 ft | 11 kts | 221° |
| 2026-04-29 10:49 | 19.94960 | 110.47390 | 62 ft | 15 kts | 271° |
| 2026-04-29 10:49 | 19.94957 | 110.47266 | 65 ft | 19 kts | 267° |
| 2026-04-29 10:49 | 19.94954 | 110.47171 | 67 ft | 4 kts | 270° |